Time;durP1;ratioP1;P1;durP2;ratioP2;P2;SDS_P1;SDS_P2;PMS_P1;PMS_P2;Temp;Humidity;BMP_temperature;BMP_pressure;BME280_temperature;BME280_humidity;BME280_pressure;Samples;Min_cycle;Max_cycle;Signal;HPM_P1;HPM_P2
2023/07/08 00:00:09;;;;;;;;;;;20.80;64.80;;;;;;4970298;28;851;-73
2023/07/08 00:02:35;;;;;;;;;;;20.80;64.80;;;;;;4972123;28;1401;-73
2023/07/08 00:05:00;;;;;;;;;;;20.80;64.80;;;;;;4971419;28;918;-73
2023/07/08 00:07:25;;;;;;;;;;;20.80;64.80;;;;;;4970668;28;1018;-73
2023/07/08 00:09:51;;;;;;;;;;;20.80;64.80;;;;;;4971634;28;827;-73
2023/07/08 00:12:16;;;;;;;;;;;20.80;64.80;;;;;;4970573;28;877;-73
2023/07/08 00:14:42;;;;;;;;;;;20.80;64.80;;;;;;4970709;28;1962;-73
2023/07/08 00:17:11;;;;;;;;;;;20.80;64.90;;;;;;4970981;28;1420;-72
2023/07/08 00:19:37;;;;;;;;;;;20.80;64.80;;;;;;4971349;28;1022;-73
2023/07/08 00:22:07;;;;;;;;;;;20.80;64.80;;;;;;4971282;28;994;-73
2023/07/08 00:24:32;;;;;;;;;;;20.80;64.90;;;;;;4968444;28;1275;-73
2023/07/08 00:26:58;;;;;;;;;;;20.80;64.90;;;;;;4970103;28;1505;-73
2023/07/08 00:29:23;;;;;;;;;;;20.80;64.90;;;;;;4969724;28;825;-72
2023/07/08 00:31:49;;;;;;;;;;;20.80;64.90;;;;;;4969939;28;954;-72
2023/07/08 00:34:15;;;;;;;;;;;20.80;64.90;;;;;;4970553;28;1898;-72
2023/07/08 00:36:41;;;;;;;;;;;20.80;64.90;;;;;;4970351;28;880;-73
2023/07/08 00:39:12;;;;;;;;;;;20.80;64.90;;;;;;4971419;28;1110;-72
2023/07/08 00:41:41;;;;;;;;;;;20.80;64.90;;;;;;4985046;28;964;-72
2023/07/08 00:44:07;;;;;;;;;;;20.80;64.90;;;;;;4985570;28;1298;-72
2023/07/08 00:46:51;;;;;;;;;;;20.80;65.00;;;;;;4987251;28;998;-72
2023/07/08 00:49:23;;;;;;;;;;;20.80;64.90;;;;;;4988459;28;1165;-73
2023/07/08 00:51:49;;;;;;;;;;;20.80;65.00;;;;;;4972887;28;950;-73
2023/07/08 00:54:15;;;;;;;;;;;20.80;65.00;;;;;;4973483;28;1899;-72
2023/07/08 00:56:53;;;;;;;;;;;20.80;65.00;;;;;;4973092;28;923;-72
2023/07/08 00:59:38;;;;;;;;;;;20.80;65.00;;;;;;4970740;28;891;-72
2023/07/08 01:02:04;;;;;;;;;;;20.80;65.00;;;;;;4967869;28;896;-72
2023/07/08 01:04:53;;;;;;;;;;;20.80;65.00;;;;;;4973055;28;1297;-72
2023/07/08 01:07:21;;;;;;;;;;;20.80;65.00;;;;;;4964872;28;1211;-73
2023/07/08 01:09:47;;;;;;;;;;;20.80;65.00;;;;;;4987750;28;935;-73
2023/07/08 01:12:19;;;;;;;;;;;20.80;65.00;;;;;;4972804;28;1034;-72
2023/07/08 01:14:45;;;;;;;;;;;20.80;65.00;;;;;;4971242;28;2255;-73
2023/07/08 01:17:13;;;;;;;;;;;20.70;65.00;;;;;;4972309;28;1014;-73
2023/07/08 01:19:42;;;;;;;;;;;20.80;65.10;;;;;;4987190;28;1419;-73
2023/07/08 01:22:07;;;;;;;;;;;20.80;65.10;;;;;;4987056;28;1420;-73
2023/07/08 01:24:34;;;;;;;;;;;20.80;65.10;;;;;;4972691;28;1241;-72
2023/07/08 01:27:00;;;;;;;;;;;20.80;65.20;;;;;;4973431;28;1331;-72
2023/07/08 01:29:25;;;;;;;;;;;20.80;65.10;;;;;;4972544;28;920;-73
2023/07/08 01:31:51;;;;;;;;;;;20.80;65.10;;;;;;4988355;28;1273;-73
2023/07/08 01:34:16;;;;;;;;;;;20.80;65.10;;;;;;4969738;28;1915;-71
2023/07/08 01:36:43;;;;;;;;;;;20.80;65.20;;;;;;4970666;28;1347;-73
2023/07/08 01:39:12;;;;;;;;;;;20.80;65.20;;;;;;4969973;28;1353;-74
2023/07/08 01:41:38;;;;;;;;;;;20.80;65.20;;;;;;4969445;28;1261;-74
2023/07/08 01:44:03;;;;;;;;;;;20.70;65.10;;;;;;4973722;28;1360;-76
2023/07/08 01:46:31;;;;;;;;;;;20.80;65.10;;;;;;4972648;28;915;-76
2023/07/08 01:48:57;;;;;;;;;;;20.80;65.10;;;;;;4972214;28;1473;-75
2023/07/08 01:51:23;;;;;;;;;;;20.80;65.10;;;;;;4972982;28;1044;-75
2023/07/08 01:53:48;;;;;;;;;;;20.80;65.10;;;;;;4954595;28;1324;-71
2023/07/08 01:56:14;;;;;;;;;;;20.80;65.20;;;;;;4971357;28;1895;-73
2023/07/08 01:58:39;;;;;;;;;;;20.80;65.10;;;;;;4973305;28;832;-73
2023/07/08 02:01:05;;;;;;;;;;;20.80;65.20;;;;;;4973340;28;887;-73
2023/07/08 02:03:30;;;;;;;;;;;20.80;65.10;;;;;;4973154;28;1378;-72
2023/07/08 02:05:56;;;;;;;;;;;20.80;65.20;;;;;;4979454;28;1326;-72
2023/07/08 02:08:21;;;;;;;;;;;20.80;65.90;;;;;;4969943;28;884;-71
2023/07/08 02:10:48;;;;;;;;;;;20.80;65.20;;;;;;4986381;28;805;-71
2023/07/08 02:13:14;;;;;;;;;;;20.80;65.20;;;;;;4971172;28;1376;-72
2023/07/08 02:15:39;;;;;;;;;;;20.80;65.20;;;;;;4973073;28;1915;-71
2023/07/08 02:18:05;;;;;;;;;;;20.80;65.20;;;;;;4973173;28;955;-70
2023/07/08 02:20:30;;;;;;;;;;;20.80;65.20;;;;;;4973313;28;1582;-72
2023/07/08 02:22:56;;;;;;;;;;;20.80;65.20;;;;;;4971995;28;1271;-73
2023/07/08 02:25:21;;;;;;;;;;;20.80;65.30;;;;;;4972958;28;856;-72
2023/07/08 02:27:47;;;;;;;;;;;20.70;65.20;;;;;;4972767;28;1322;-73
2023/07/08 02:30:12;;;;;;;;;;;20.80;65.20;;;;;;4972827;28;1330;-73
2023/07/08 02:32:38;;;;;;;;;;;20.80;65.30;;;;;;4972271;28;1564;-75
2023/07/08 02:35:04;;;;;;;;;;;20.80;65.30;;;;;;4972967;28;1958;-73
2023/07/08 02:37:30;;;;;;;;;;;20.80;65.30;;;;;;4972906;28;1459;-73
2023/07/08 02:39:55;;;;;;;;;;;20.80;65.30;;;;;;4971063;28;880;-73
2023/07/08 02:42:21;;;;;;;;;;;20.80;65.30;;;;;;4972620;28;919;-72
2023/07/08 02:44:46;;;;;;;;;;;20.80;65.30;;;;;;4971884;28;1315;-72
2023/07/08 02:47:12;;;;;;;;;;;20.80;65.40;;;;;;4977804;28;1166;-72
2023/07/08 02:49:37;;;;;;;;;;;20.80;65.30;;;;;;4967608;28;808;-73
2023/07/08 02:52:03;;;;;;;;;;;20.80;65.40;;;;;;4970999;28;873;-72
2023/07/08 02:54:28;;;;;;;;;;;20.70;65.30;;;;;;4970810;28;1965;-75
2023/07/08 02:56:54;;;;;;;;;;;20.80;65.40;;;;;;4971199;28;952;-75
2023/07/08 02:59:19;;;;;;;;;;;20.80;65.40;;;;;;4971908;28;860;-76
2023/07/08 03:01:46;;;;;;;;;;;20.80;65.40;;;;;;4972573;28;912;-75
2023/07/08 03:04:12;;;;;;;;;;;20.80;65.40;;;;;;4968447;28;1276;-75
2023/07/08 03:06:41;;;;;;;;;;;20.80;65.50;;;;;;4972610;28;869;-76
2023/07/08 03:09:07;;;;;;;;;;;20.80;65.50;;;;;;4975945;28;1240;-72
2023/07/08 03:11:33;;;;;;;;;;;20.80;65.50;;;;;;4970750;28;777;-74
2023/07/08 03:13:58;;;;;;;;;;;20.80;65.40;;;;;;4970065;28;1227;-73
2023/07/08 03:16:23;;;;;;;;;;;20.80;65.50;;;;;;4971973;28;1953;-74
2023/07/08 03:18:49;;;;;;;;;;;20.80;65.40;;;;;;4970394;28;1074;-73
2023/07/08 03:21:15;;;;;;;;;;;20.80;65.50;;;;;;4973820;28;845;-72
2023/07/08 03:23:41;;;;;;;;;;;20.80;65.50;;;;;;4971956;28;1265;-73
2023/07/08 03:26:06;;;;;;;;;;;20.80;65.60;;;;;;4973952;28;1534;-73
2023/07/08 03:28:32;;;;;;;;;;;20.80;65.50;;;;;;4974204;28;881;-73
2023/07/08 03:30:58;;;;;;;;;;;20.70;65.40;;;;;;4969318;28;812;-74
2023/07/08 03:33:23;;;;;;;;;;;20.80;65.50;;;;;;4972902;28;1210;-73
2023/07/08 03:35:49;;;;;;;;;;;20.80;65.50;;;;;;4972390;28;1898;-73
2023/07/08 03:38:14;;;;;;;;;;;20.80;65.50;;;;;;4986865;28;906;-73
2023/07/08 03:40:40;;;;;;;;;;;20.80;65.50;;;;;;4971753;28;1577;-73
2023/07/08 03:43:05;;;;;;;;;;;20.80;65.50;;;;;;4972174;28;1256;-73
2023/07/08 03:45:31;;;;;;;;;;;20.80;65.60;;;;;;4971069;28;1070;-73
2023/07/08 03:47:56;;;;;;;;;;;20.80;65.50;;;;;;4971064;28;1575;-73
2023/07/08 03:50:22;;;;;;;;;;;20.80;65.60;;;;;;4970902;28;809;-73
2023/07/08 03:52:48;;;;;;;;;;;20.70;65.50;;;;;;4970900;28;1341;-71
2023/07/08 03:55:13;;;;;;;;;;;20.80;65.60;;;;;;4969990;28;2018;-71
2023/07/08 03:57:39;;;;;;;;;;;20.80;65.60;;;;;;4969901;28;813;-72
2023/07/08 04:00:09;;;;;;;;;;;20.80;65.60;;;;;;4986333;28;899;-72
2023/07/08 04:02:35;;;;;;;;;;;20.80;65.60;;;;;;4971314;28;1274;-71
2023/07/08 04:05:00;;;;;;;;;;;20.80;65.60;;;;;;4971442;28;820;-71
2023/07/08 04:07:26;;;;;;;;;;;20.80;65.60;;;;;;4978109;28;1396;-72
2023/07/08 04:09:51;;;;;;;;;;;20.70;65.60;;;;;;4969169;28;1046;-72
2023/07/08 04:12:17;;;;;;;;;;;20.80;65.70;;;;;;4971282;28;1023;-72
2023/07/08 04:14:42;;;;;;;;;;;20.80;65.60;;;;;;4972024;28;1911;-74
2023/07/08 04:17:08;;;;;;;;;;;20.80;65.60;;;;;;4971581;28;793;-72
2023/07/08 04:19:33;;;;;;;;;;;20.80;65.70;;;;;;4970080;28;1399;-72
2023/07/08 04:22:00;;;;;;;;;;;20.80;65.70;;;;;;4972172;28;808;-73
2023/07/08 04:24:25;;;;;;;;;;;20.80;65.70;;;;;;4974228;28;1881;-73
2023/07/08 04:26:52;;;;;;;;;;;20.70;65.60;;;;;;4974929;28;846;-74
2023/07/08 04:29:18;;;;;;;;;;;20.80;65.70;;;;;;4989627;28;1339;-74
2023/07/08 04:31:44;;;;;;;;;;;20.70;65.60;;;;;;4972471;28;1366;-74
2023/07/08 04:34:10;;;;;;;;;;;20.80;65.70;;;;;;4971506;28;1292;-74
2023/07/08 04:36:35;;;;;;;;;;;20.70;65.60;;;;;;4974709;28;1927;-74
2023/07/08 04:39:01;;;;;;;;;;;20.70;65.60;;;;;;4989401;28;1042;-74
2023/07/08 04:41:27;;;;;;;;;;;20.70;65.60;;;;;;4974926;28;1207;-74
2023/07/08 04:43:53;;;;;;;;;;;20.70;65.60;;;;;;4974520;28;1321;-72
2023/07/08 04:46:19;;;;;;;;;;;20.80;65.70;;;;;;4974749;28;824;-74
2023/07/08 04:48:45;;;;;;;;;;;20.70;65.70;;;;;;4970848;28;987;-78
2023/07/08 04:51:11;;;;;;;;;;;20.70;65.70;;;;;;4977497;28;864;-77
2023/07/08 04:53:36;;;;;;;;;;;20.80;65.70;;;;;;4975320;28;1249;-76
2023/07/08 04:56:02;;;;;;;;;;;20.80;65.80;;;;;;4973670;28;1915;-75
2023/07/08 04:58:27;;;;;;;;;;;20.70;65.70;;;;;;4972766;28;848;-74
2023/07/08 05:00:53;;;;;;;;;;;20.70;65.70;;;;;;4974680;28;883;-75
2023/07/08 05:03:18;;;;;;;;;;;20.70;65.70;;;;;;4974118;28;1356;-74
2023/07/08 05:05:44;;;;;;;;;;;20.80;65.80;;;;;;4988388;28;971;-71
2023/07/08 05:08:09;;;;;;;;;;;20.70;65.70;;;;;;4972284;28;859;-72
2023/07/08 05:10:34;;;;;;;;;;;20.80;65.80;;;;;;4974873;28;1078;-72
2023/07/08 05:13:00;;;;;;;;;;;20.70;65.70;;;;;;4973786;28;1354;-72
2023/07/08 05:15:25;;;;;;;;;;;20.80;65.80;;;;;;4974325;28;1979;-72
2023/07/08 05:17:51;;;;;;;;;;;20.70;65.70;;;;;;4974384;28;840;-72
2023/07/08 05:20:18;;;;;;;;;;;20.70;65.70;;;;;;4973031;28;899;-73
2023/07/08 05:22:44;;;;;;;;;;;20.70;65.80;;;;;;4971703;28;1296;-73
2023/07/08 05:25:12;;;;;;;;;;;20.80;65.80;;;;;;4969040;28;838;-72
2023/07/08 05:27:37;;;;;;;;;;;20.80;65.90;;;;;;4967643;28;1251;-72
2023/07/08 05:30:03;;;;;;;;;;;20.70;65.80;;;;;;4973546;28;943;-72
2023/07/08 05:32:28;;;;;;;;;;;20.80;65.90;;;;;;4972476;28;1343;-73
2023/07/08 05:34:54;;;;;;;;;;;20.80;65.90;;;;;;4974641;28;1887;-71
2023/07/08 05:37:23;;;;;;;;;;;20.80;65.90;;;;;;4974519;28;855;-75
2023/07/08 05:39:49;;;;;;;;;;;20.80;65.90;;;;;;4973286;28;892;-72
2023/07/08 05:42:14;;;;;;;;;;;20.70;65.80;;;;;;4970874;28;1075;-74
2023/07/08 05:44:42;;;;;;;;;;;20.70;65.80;;;;;;4972157;28;1355;-72
2023/07/08 05:47:08;;;;;;;;;;;20.70;65.80;;;;;;4968822;28;1860;-68
2023/07/08 05:49:33;;;;;;;;;;;20.80;65.90;;;;;;4971382;28;1997;-68
2023/07/08 05:52:05;;;;;;;;;;;20.70;65.80;;;;;;4972324;28;1428;-67
2023/07/08 05:54:30;;;;;;;;;;;20.70;65.80;;;;;;4987365;28;1915;-68
2023/07/08 05:56:56;;;;;;;;;;;20.80;66.00;;;;;;4973370;28;989;-68
2023/07/08 05:59:21;;;;;;;;;;;20.70;65.80;;;;;;4973011;28;872;-69
2023/07/08 06:01:47;;;;;;;;;;;20.80;65.90;;;;;;4972640;28;1504;-68
2023/07/08 06:04:12;;;;;;;;;;;20.80;65.90;;;;;;4973265;28;1250;-68
2023/07/08 06:06:38;;;;;;;;;;;20.70;65.90;;;;;;4972814;28;1295;-70
2023/07/08 06:09:09;;;;;;;;;;;20.70;65.90;;;;;;4971997;28;1516;-70
2023/07/08 06:11:35;;;;;;;;;;;20.70;65.90;;;;;;4971329;28;1337;-68
2023/07/08 06:14:00;;;;;;;;;;;20.70;65.90;;;;;;4965945;28;1268;-67
2023/07/08 06:16:27;;;;;;;;;;;20.70;65.90;;;;;;4973348;28;1919;-67
2023/07/08 06:18:53;;;;;;;;;;;20.70;65.90;;;;;;4972339;28;1006;-68
2023/07/08 06:21:18;;;;;;;;;;;20.70;65.90;;;;;;4970404;28;1299;-69
2023/07/08 06:23:44;;;;;;;;;;;20.80;65.90;;;;;;4971401;28;1354;-69
2023/07/08 06:26:09;;;;;;;;;;;20.70;65.90;;;;;;4960909;28;1193;-69
2023/07/08 06:28:35;;;;;;;;;;;20.70;65.90;;;;;;4971663;28;888;-68
2023/07/08 06:31:00;;;;;;;;;;;20.80;66.00;;;;;;4971867;28;1305;-71
2023/07/08 06:33:25;;;;;;;;;;;20.70;65.90;;;;;;4972419;28;1236;-71
2023/07/08 06:35:51;;;;;;;;;;;20.70;65.90;;;;;;4972835;28;1902;-71
2023/07/08 06:38:16;;;;;;;;;;;20.70;66.00;;;;;;4972526;28;1332;-71
2023/07/08 06:40:42;;;;;;;;;;;20.70;65.90;;;;;;4969259;28;781;-71
2023/07/08 06:43:07;;;;;;;;;;;20.70;65.90;;;;;;4968273;28;1281;-70
2023/07/08 06:45:33;;;;;;;;;;;20.70;66.00;;;;;;4971217;28;875;-71
2023/07/08 06:47:58;;;;;;;;;;;20.70;66.00;;;;;;4971176;28;1078;-71
2023/07/08 06:50:24;;;;;;;;;;;20.70;65.90;;;;;;4972822;28;1147;-70
2023/07/08 06:52:49;;;;;;;;;;;20.70;65.90;;;;;;4971941;28;1291;-71
2023/07/08 06:55:14;;;;;;;;;;;20.80;66.00;;;;;;4972473;28;1902;-70
2023/07/08 06:57:40;;;;;;;;;;;20.70;66.00;;;;;;4971925;28;927;-69
2023/07/08 07:00:09;;;;;;;;;;;20.80;66.00;;;;;;4969951;28;801;-70
2023/07/08 07:02:34;;;;;;;;;;;20.80;66.00;;;;;;4969633;28;2118;-70
2023/07/08 07:05:00;;;;;;;;;;;20.70;66.00;;;;;;4969830;28;1343;-70
2023/07/08 07:07:26;;;;;;;;;;;20.70;66.00;;;;;;4971300;28;1417;-69
2023/07/08 07:09:53;;;;;;;;;;;20.70;66.00;;;;;;4970255;28;1505;-69
2023/07/08 07:12:18;;;;;;;;;;;20.70;66.00;;;;;;4984322;28;927;-69
2023/07/08 07:14:44;;;;;;;;;;;20.80;66.00;;;;;;4968994;28;1907;-69
2023/07/08 07:17:10;;;;;;;;;;;20.70;66.00;;;;;;4972054;28;1227;-69
2023/07/08 07:19:35;;;;;;;;;;;20.80;66.10;;;;;;4971977;28;1328;-69
2023/07/08 07:22:01;;;;;;;;;;;20.70;66.10;;;;;;4971156;28;925;-69
2023/07/08 07:24:26;;;;;;;;;;;20.70;66.10;;;;;;4970174;28;1297;-69
2023/07/08 07:26:52;;;;;;;;;;;20.80;66.10;;;;;;4971262;28;824;-69
2023/07/08 07:29:17;;;;;;;;;;;20.80;66.10;;;;;;4970910;28;1329;-69
2023/07/08 07:31:43;;;;;;;;;;;20.70;66.00;;;;;;4969793;28;1380;-69
2023/07/08 07:34:09;;;;;;;;;;;20.70;66.10;;;;;;4970404;28;1277;-69
2023/07/08 07:36:34;;;;;;;;;;;20.70;66.10;;;;;;4985093;28;1957;-70
2023/07/08 07:39:00;;;;;;;;;;;20.70;66.00;;;;;;4971728;28;963;-70
2023/07/08 07:41:25;;;;;;;;;;;20.70;66.10;;;;;;4971750;28;1310;-70
2023/07/08 07:43:51;;;;;;;;;;;20.80;66.10;;;;;;4971403;28;1243;-70
2023/07/08 07:46:16;;;;;;;;;;;20.70;66.10;;;;;;4971196;28;1193;-70
2023/07/08 07:48:42;;;;;;;;;;;20.70;66.10;;;;;;4971474;28;831;-70
2023/07/08 07:51:10;;;;;;;;;;;20.70;66.10;;;;;;4986499;28;852;-70
2023/07/08 07:53:36;;;;;;;;;;;20.80;66.20;;;;;;4971530;28;1241;-70
2023/07/08 07:56:03;;;;;;;;;;;20.70;66.10;;;;;;4970981;28;1894;-70
2023/07/08 07:58:28;;;;;;;;;;;20.70;66.10;;;;;;4986102;28;873;-70
2023/07/08 08:00:54;;;;;;;;;;;20.70;66.00;;;;;;4968861;28;880;-70
2023/07/08 08:03:20;;;;;;;;;;;20.80;66.20;;;;;;4970664;28;1247;-70
2023/07/08 08:05:45;;;;;;;;;;;20.70;66.10;;;;;;4969737;28;1408;-70
2023/07/08 08:08:11;;;;;;;;;;;20.70;66.10;;;;;;4969889;28;874;-70
2023/07/08 08:10:36;;;;;;;;;;;20.70;66.10;;;;;;4970990;28;872;-70
2023/07/08 08:13:02;;;;;;;;;;;20.80;66.20;;;;;;4965358;28;1215;-70
2023/07/08 08:15:27;;;;;;;;;;;20.70;66.10;;;;;;4965338;28;1966;-70
2023/07/08 08:17:53;;;;;;;;;;;20.70;66.10;;;;;;4970963;28;2464;-70
2023/07/08 08:20:19;;;;;;;;;;;20.80;66.20;;;;;;4970788;28;1356;-70
2023/07/08 08:22:45;;;;;;;;;;;20.80;66.20;;;;;;4971145;28;1340;-70
2023/07/08 08:25:10;;;;;;;;;;;20.80;66.20;;;;;;4970935;28;920;-70
2023/07/08 08:27:36;;;;;;;;;;;20.70;66.10;;;;;;4970969;28;1365;-70
2023/07/08 08:30:01;;;;;;;;;;;20.70;66.10;;;;;;4971168;28;1147;-70
2023/07/08 08:32:27;;;;;;;;;;;20.70;66.10;;;;;;4970401;28;939;-70
2023/07/08 08:34:52;;;;;;;;;;;20.70;66.10;;;;;;4970381;28;2393;-70
2023/07/08 08:37:17;;;;;;;;;;;20.80;66.20;;;;;;4969763;28;912;-70
2023/07/08 08:39:43;;;;;;;;;;;20.80;66.20;;;;;;4971179;28;847;-69
2023/07/08 08:42:16;;;;;;;;;;;20.80;66.20;;;;;;4970130;28;1219;-69
2023/07/08 08:44:44;;;;;;;;;;;20.80;66.20;;;;;;4969883;28;1346;-69
2023/07/08 08:47:14;;;;;;;;;;;20.80;66.20;;;;;;4985642;28;878;-69
2023/07/08 08:49:41;;;;;;;;;;;20.70;66.10;;;;;;4969669;28;872;-69
2023/07/08 08:52:07;;;;;;;;;;;20.80;66.20;;;;;;4985179;28;830;-69
2023/07/08 08:54:32;;;;;;;;;;;20.80;66.20;;;;;;4970788;28;1891;-69
2023/07/08 08:56:58;;;;;;;;;;;20.80;66.20;;;;;;4984791;28;904;-69
2023/07/08 08:59:37;;;;;;;;;;;20.80;66.20;;;;;;4968979;28;797;-69
2023/07/08 09:02:07;;;;;;;;;;;20.70;66.10;;;;;;4968187;28;884;-70
2023/07/08 09:04:33;;;;;;;;;;;20.80;66.20;;;;;;4967982;28;1352;-69
2023/07/08 09:07:05;;;;;;;;;;;20.80;66.20;;;;;;4984843;28;771;-70
2023/07/08 09:09:33;;;;;;;;;;;20.70;66.10;;;;;;4968055;28;837;-70
2023/07/08 09:12:13;;;;;;;;;;;20.80;66.20;;;;;;4964657;28;857;-70
2023/07/08 09:14:38;;;;;;;;;;;20.80;66.30;;;;;;4972601;28;1903;-70
2023/07/08 09:17:21;;;;;;;;;;;20.70;66.20;;;;;;4973892;28;859;-70
2023/07/08 09:19:49;;;;;;;;;;;20.70;66.10;;;;;;4986972;28;1305;-70
2023/07/08 09:22:24;;;;;;;;;;;20.80;66.30;;;;;;4988846;28;828;-69
2023/07/08 09:25:00;;;;;;;;;;;20.70;66.20;;;;;;4972066;28;1380;-70
2023/07/08 09:27:25;;;;;;;;;;;20.80;66.30;;;;;;4971490;28;1496;-70
2023/07/08 09:29:51;;;;;;;;;;;20.80;66.30;;;;;;4974078;28;895;-70
2023/07/08 09:32:18;;;;;;;;;;;20.80;66.20;;;;;;4973676;28;934;-70
2023/07/08 09:34:45;;;;;;;;;;;20.70;66.20;;;;;;4973861;28;1961;-70
2023/07/08 09:37:24;;;;;;;;;;;20.80;66.30;;;;;;4987669;28;847;-70
2023/07/08 09:39:49;;;;;;;;;;;20.80;67.00;;;;;;4988052;28;895;-70
2023/07/08 09:42:15;;;;;;;;;;;20.80;66.20;;;;;;4972252;28;822;-69
2023/07/08 09:44:40;;;;;;;;;;;20.80;66.30;;;;;;4988565;28;1291;-69
2023/07/08 09:47:08;;;;;;;;;;;20.80;66.30;;;;;;4986255;28;1260;-69
2023/07/08 09:49:34;;;;;;;;;;;20.80;66.30;;;;;;4966281;28;1333;-69
2023/07/08 09:52:00;;;;;;;;;;;20.80;66.30;;;;;;4971846;28;932;-69
2023/07/08 09:54:26;;;;;;;;;;;20.80;66.30;;;;;;4971926;28;1335;-70
2023/07/08 09:56:51;;;;;;;;;;;20.80;66.30;;;;;;4973023;28;1899;-69
2023/07/08 09:59:17;;;;;;;;;;;20.80;66.30;;;;;;4987202;28;1164;-69
2023/07/08 10:01:42;;;;;;;;;;;20.80;66.30;;;;;;4982155;28;899;-69
2023/07/08 10:04:08;;;;;;;;;;;20.80;66.30;;;;;;4968480;28;1277;-70
2023/07/08 10:06:33;;;;;;;;;;;20.80;66.30;;;;;;4973200;28;892;-69
2023/07/08 10:09:09;;;;;;;;;;;20.80;66.30;;;;;;4988347;28;875;-70
2023/07/08 10:11:39;;;;;;;;;;;20.80;66.30;;;;;;4988202;28;970;-70
2023/07/08 10:14:25;;;;;;;;;;;20.80;66.30;;;;;;4986815;28;1276;-70
2023/07/08 10:16:50;;;;;;;;;;;20.80;66.30;;;;;;4961402;28;1903;-69
2023/07/08 10:19:17;;;;;;;;;;;20.80;66.30;;;;;;4981522;28;1084;-69
2023/07/08 10:21:45;;;;;;;;;;;20.80;66.30;;;;;;4970861;28;865;-70
2023/07/08 10:24:23;;;;;;;;;;;20.80;66.30;;;;;;4970694;28;1393;-69
2023/07/08 10:26:49;;;;;;;;;;;20.80;66.30;;;;;;4969445;28;872;-69
2023/07/08 10:29:23;;;;;;;;;;;20.80;66.30;;;;;;4971517;28;1429;-70
2023/07/08 10:31:54;;;;;;;;;;;20.80;66.30;;;;;;4970812;28;845;-70
2023/07/08 10:34:25;;;;;;;;;;;20.80;66.30;;;;;;4971311;28;1239;-70
2023/07/08 10:37:03;;;;;;;;;;;20.80;66.30;;;;;;4971032;28;1942;-70
2023/07/08 10:39:34;;;;;;;;;;;20.80;66.30;;;;;;4971975;28;1055;-70
2023/07/08 10:42:09;;;;;;;;;;;20.80;66.30;;;;;;4986850;28;908;-70
2023/07/08 10:44:54;;;;;;;;;;;20.80;66.40;;;;;;4969592;28;1250;-69
2023/07/08 10:47:38;;;;;;;;;;;20.80;66.30;;;;;;4972303;28;981;-69
2023/07/08 10:50:18;;;;;;;;;;;20.80;66.30;;;;;;4984773;28;1293;-69
2023/07/08 10:53:10;;;;;;;;;;;20.80;66.30;;;;;;4969765;28;1265;-69
2023/07/08 10:55:40;;;;;;;;;;;20.80;66.40;;;;;;4954489;28;1894;-69
2023/07/08 10:58:05;;;;;;;;;;;20.80;66.40;;;;;;4987183;28;1093;-70
2023/07/08 11:00:40;;;;;;;;;;;20.80;66.40;;;;;;4970374;28;2131;-69
2023/07/08 11:03:20;;;;;;;;;;;20.80;66.40;;;;;;4970687;28;1272;-69
2023/07/08 11:05:46;;;;;;;;;;;20.80;66.40;;;;;;4985351;28;2263;-69
2023/07/08 11:08:26;;;;;;;;;;;20.80;66.40;;;;;;4969698;28;1874;-69
2023/07/08 11:11:06;;;;;;;;;;;20.80;66.30;;;;;;4985923;28;1059;-70
2023/07/08 11:13:32;;;;;;;;;;;20.70;66.30;;;;;;4984844;28;1516;-70
2023/07/08 11:15:59;;;;;;;;;;;20.80;66.40;;;;;;4971724;28;1895;-70
2023/07/08 11:18:27;;;;;;;;;;;20.80;66.30;;;;;;4970366;28;1262;-70
2023/07/08 11:21:04;;;;;;;;;;;20.80;66.40;;;;;;4972127;28;1436;-70
2023/07/08 11:23:36;;;;;;;;;;;20.80;66.40;;;;;;4970571;28;1260;-70
2023/07/08 11:26:11;;;;;;;;;;;20.80;66.40;;;;;;4970574;28;1203;-69
2023/07/08 11:28:36;;;;;;;;;;;20.80;66.40;;;;;;4970387;28;1455;-70
2023/07/08 11:31:02;;;;;;;;;;;20.80;66.80;;;;;;4969559;28;1862;-70
2023/07/08 11:33:28;;;;;;;;;;;20.80;66.40;;;;;;4969706;28;1381;-70
2023/07/08 11:35:55;;;;;;;;;;;20.80;66.40;;;;;;4970579;28;1902;-70
2023/07/08 11:38:21;;;;;;;;;;;20.70;66.40;;;;;;4985745;28;1465;-70
2023/07/08 11:40:56;;;;;;;;;;;20.80;66.40;;;;;;4970888;28;1354;-70
2023/07/08 11:43:22;;;;;;;;;;;20.80;66.40;;;;;;4970628;28;1479;-70
2023/07/08 11:45:48;;;;;;;;;;;20.80;66.40;;;;;;4970273;28;1700;-70
2023/07/08 11:48:35;;;;;;;;;;;20.80;66.40;;;;;;4969816;28;836;-70
2023/07/08 11:51:04;;;;;;;;;;;20.80;66.30;;;;;;4970265;28;1350;-70
2023/07/08 11:53:29;;;;;;;;;;;20.80;66.40;;;;;;4966652;28;1292;-70
2023/07/08 11:55:59;;;;;;;;;;;20.80;66.40;;;;;;4971201;28;1954;-70
2023/07/08 11:58:31;;;;;;;;;;;20.80;66.40;;;;;;4986616;28;904;-70
2023/07/08 12:00:59;;;;;;;;;;;20.80;66.50;;;;;;4969456;28;911;-70
2023/07/08 12:03:33;;;;;;;;;;;20.80;66.40;;;;;;4969608;28;1372;-70
2023/07/08 12:05:59;;;;;;;;;;;20.80;66.50;;;;;;4970390;28;951;-70
2023/07/08 12:08:32;;;;;;;;;;;20.80;66.40;;;;;;4969242;28;904;-70
2023/07/08 12:10:57;;;;;;;;;;;20.80;66.40;;;;;;4971281;28;896;-70
2023/07/08 12:13:23;;;;;;;;;;;20.80;66.50;;;;;;4970038;28;1442;-71
2023/07/08 12:15:49;;;;;;;;;;;20.80;66.50;;;;;;4986527;28;1976;-71
2023/07/08 12:18:18;;;;;;;;;;;20.80;66.50;;;;;;4971487;28;1378;-70
2023/07/08 12:20:48;;;;;;;;;;;20.80;66.50;;;;;;4966674;28;955;-71
2023/07/08 12:23:14;;;;;;;;;;;20.80;66.50;;;;;;4970733;28;1338;-69
2023/07/08 12:25:40;;;;;;;;;;;20.80;66.50;;;;;;4968870;28;2065;-70
2023/07/08 12:28:05;;;;;;;;;;;20.80;66.50;;;;;;4969591;28;1863;-70
2023/07/08 12:30:31;;;;;;;;;;;20.80;66.50;;;;;;4969313;28;1503;-71
2023/07/08 12:32:59;;;;;;;;;;;20.80;66.50;;;;;;4970031;28;1357;-70
2023/07/08 12:35:32;;;;;;;;;;;20.80;66.50;;;;;;4981852;28;1898;-70
2023/07/08 12:37:59;;;;;;;;;;;20.80;66.60;;;;;;4966985;28;824;-70
2023/07/08 12:40:25;;;;;;;;;;;20.80;66.50;;;;;;4969301;28;852;-70
2023/07/08 12:42:50;;;;;;;;;;;20.80;66.60;;;;;;4971685;28;1269;-70
2023/07/08 12:45:17;;;;;;;;;;;20.80;66.60;;;;;;4974961;28;868;-71
2023/07/08 12:47:42;;;;;;;;;;;20.80;66.50;;;;;;4973962;28;872;-70
2023/07/08 12:50:09;;;;;;;;;;;20.80;66.60;;;;;;4977158;28;1294;-71
2023/07/08 12:52:35;;;;;;;;;;;20.80;66.50;;;;;;4972642;28;1413;-70
2023/07/08 12:55:00;;;;;;;;;;;20.80;66.60;;;;;;4973211;28;1918;-70
2023/07/08 12:57:26;;;;;;;;;;;20.80;66.50;;;;;;4973935;28;1035;-70
2023/07/08 12:59:51;;;;;;;;;;;20.80;66.50;;;;;;4989677;28;856;-70
2023/07/08 13:02:18;;;;;;;;;;;20.80;66.50;;;;;;4970539;28;944;-70
2023/07/08 13:04:44;;;;;;;;;;;20.80;66.60;;;;;;4973475;28;1272;-70
2023/07/08 13:07:13;;;;;;;;;;;20.80;66.60;;;;;;4974545;28;888;-70
2023/07/08 13:09:44;;;;;;;;;;;20.80;66.50;;;;;;4972496;28;1146;-70
2023/07/08 13:12:16;;;;;;;;;;;20.80;66.60;;;;;;4988533;28;872;-70
2023/07/08 13:14:43;;;;;;;;;;;20.80;66.60;;;;;;4973855;28;1898;-70
2023/07/08 13:17:13;;;;;;;;;;;20.80;66.60;;;;;;4989243;28;840;-70
2023/07/08 13:19:38;;;;;;;;;;;20.80;66.60;;;;;;4972464;28;1343;-70
2023/07/08 13:22:04;;;;;;;;;;;20.80;66.60;;;;;;4973981;28;903;-70
2023/07/08 13:24:30;;;;;;;;;;;20.80;66.50;;;;;;4973761;28;1359;-70
2023/07/08 13:26:55;;;;;;;;;;;20.80;66.60;;;;;;4972996;28;901;-70
2023/07/08 13:29:21;;;;;;;;;;;20.80;66.60;;;;;;4987735;28;1561;-70
2023/07/08 13:31:53;;;;;;;;;;;20.80;66.60;;;;;;4971451;28;1316;-70
2023/07/08 13:34:19;;;;;;;;;;;20.80;66.60;;;;;;4972677;28;1312;-70
2023/07/08 13:36:45;;;;;;;;;;;20.80;66.60;;;;;;4971060;28;1958;-70
2023/07/08 13:39:15;;;;;;;;;;;20.80;66.60;;;;;;4982970;28;845;-70
2023/07/08 13:41:44;;;;;;;;;;;20.80;66.40;;;;;;4986950;28;951;-70
2023/07/08 13:44:09;;;;;;;;;;;20.80;66.60;;;;;;4987628;28;1278;-70
2023/07/08 13:46:34;;;;;;;;;;;20.80;66.70;;;;;;4986343;28;970;-70
2023/07/08 13:49:09;;;;;;;;;;;20.80;66.70;;;;;;4971788;28;883;-70
2023/07/08 13:51:34;;;;;;;;;;;20.80;66.70;;;;;;4972106;28;907;-70
2023/07/08 13:54:03;;;;;;;;;;;20.80;66.70;;;;;;4970305;28;1281;-70
2023/07/08 13:56:32;;;;;;;;;;;20.80;66.70;;;;;;4968867;28;1899;-70
2023/07/08 13:59:08;;;;;;;;;;;20.80;66.70;;;;;;4988560;28;904;-71
2023/07/08 14:01:34;;;;;;;;;;;20.80;66.70;;;;;;4971483;28;911;-70
2023/07/08 14:04:02;;;;;;;;;;;20.80;66.70;;;;;;4973745;28;1736;-71
2023/07/08 14:06:38;;;;;;;;;;;20.80;66.70;;;;;;4975867;28;1642;-71
2023/07/08 14:09:11;;;;;;;;;;;20.80;66.70;;;;;;4971574;28;836;-69
2023/07/08 14:11:36;;;;;;;;;;;20.80;66.70;;;;;;4972618;28;1086;-69
2023/07/08 14:14:02;;;;;;;;;;;20.80;66.70;;;;;;4972819;28;1267;-70
2023/07/08 14:16:29;;;;;;;;;;;20.80;66.70;;;;;;4973536;28;1974;-69
2023/07/08 14:18:55;;;;;;;;;;;20.80;66.70;;;;;;4988242;28;1107;-70
2023/07/08 14:21:20;;;;;;;;;;;20.80;66.70;;;;;;4987831;28;940;-69
2023/07/08 14:23:46;;;;;;;;;;;20.80;66.70;;;;;;4970045;28;1271;-69
2023/07/08 14:26:11;;;;;;;;;;;20.80;66.80;;;;;;4971411;28;782;-70
2023/07/08 14:28:37;;;;;;;;;;;20.80;66.80;;;;;;4972465;28;1017;-69
2023/07/08 14:31:02;;;;;;;;;;;20.80;66.70;;;;;;4970935;28;967;-70
2023/07/08 14:33:28;;;;;;;;;;;20.80;66.80;;;;;;4984455;28;1283;-70
2023/07/08 14:35:53;;;;;;;;;;;20.80;66.70;;;;;;4968673;28;1902;-70